sensor_id;sensor_type;location;lat;lon;timestamp;temperature;humidity
25342;DHT22;13298;48.792;9.154;2023-07-31T00:01:30;14.50;99.90
25342;DHT22;13298;48.792;9.154;2023-07-31T00:03:56;14.40;99.90
25342;DHT22;13298;48.792;9.154;2023-07-31T00:06:22;14.40;99.90
25342;DHT22;13298;48.792;9.154;2023-07-31T00:08:47;14.40;99.90
25342;DHT22;13298;48.792;9.154;2023-07-31T00:11:13;14.30;99.90
25342;DHT22;13298;48.792;9.154;2023-07-31T00:13:39;14.30;99.90
25342;DHT22;13298;48.792;9.154;2023-07-31T00:16:04;14.20;99.90
25342;DHT22;13298;48.792;9.154;2023-07-31T00:18:30;14.20;99.90
25342;DHT22;13298;48.792;9.154;2023-07-31T00:20:56;14.10;99.90
25342;DHT22;13298;48.792;9.154;2023-07-31T00:23:21;14.10;99.90
25342;DHT22;13298;48.792;9.154;2023-07-31T00:25:47;14.00;99.90
25342;DHT22;13298;48.792;9.154;2023-07-31T00:28:13;14.00;99.90
25342;DHT22;13298;48.792;9.154;2023-07-31T00:30:39;14.00;99.90
25342;DHT22;13298;48.792;9.154;2023-07-31T00:33:05;13.90;99.90
25342;DHT22;13298;48.792;9.154;2023-07-31T00:35:30;13.90;99.90
25342;DHT22;13298;48.792;9.154;2023-07-31T00:37:57;13.90;99.90
25342;DHT22;13298;48.792;9.154;2023-07-31T00:40:23;14.00;99.90
25342;DHT22;13298;48.792;9.154;2023-07-31T00:42:49;13.90;99.90
25342;DHT22;13298;48.792;9.154;2023-07-31T00:45:14;14.00;99.90
25342;DHT22;13298;48.792;9.154;2023-07-31T00:47:40;13.90;99.90
25342;DHT22;13298;48.792;9.154;2023-07-31T00:50:07;13.90;99.90
25342;DHT22;13298;48.792;9.154;2023-07-31T00:52:33;13.90;99.90
25342;DHT22;13298;48.792;9.154;2023-07-31T00:54:59;13.80;99.90
25342;DHT22;13298;48.792;9.154;2023-07-31T00:57:25;13.80;99.90
25342;DHT22;13298;48.792;9.154;2023-07-31T00:59:51;13.80;99.90
25342;DHT22;13298;48.792;9.154;2023-07-31T01:02:17;13.70;99.90
25342;DHT22;13298;48.792;9.154;2023-07-31T01:04:43;13.70;99.90
25342;DHT22;13298;48.792;9.154;2023-07-31T01:07:14;13.60;99.90
25342;DHT22;13298;48.792;9.154;2023-07-31T01:10:08;13.60;99.90
25342;DHT22;13298;48.792;9.154;2023-07-31T01:12:38;13.50;99.90
25342;DHT22;13298;48.792;9.154;2023-07-31T01:15:05;13.50;99.90
25342;DHT22;13298;48.792;9.154;2023-07-31T01:17:32;13.50;99.90
25342;DHT22;13298;48.792;9.154;2023-07-31T01:20:02;13.40;99.90
25342;DHT22;13298;48.792;9.154;2023-07-31T01:22:54;13.40;99.90
25342;DHT22;13298;48.792;9.154;2023-07-31T01:28:25;13.40;99.90
25342;DHT22;13298;48.792;9.154;2023-07-31T01:31:06;13.40;99.90
25342;DHT22;13298;48.792;9.154;2023-07-31T01:33:33;13.40;99.90
25342;DHT22;13298;48.792;9.154;2023-07-31T01:35:59;13.40;99.90
25342;DHT22;13298;48.792;9.154;2023-07-31T01:38:25;13.50;99.90
25342;DHT22;13298;48.792;9.154;2023-07-31T01:40:53;13.50;99.90
25342;DHT22;13298;48.792;9.154;2023-07-31T01:43:19;13.50;99.90
25342;DHT22;13298;48.792;9.154;2023-07-31T01:45:45;13.50;99.90
25342;DHT22;13298;48.792;9.154;2023-07-31T01:48:11;13.60;99.90
25342;DHT22;13298;48.792;9.154;2023-07-31T01:50:36;13.70;99.90
25342;DHT22;13298;48.792;9.154;2023-07-31T01:53:02;13.80;99.90
25342;DHT22;13298;48.792;9.154;2023-07-31T01:55:28;13.80;99.90
25342;DHT22;13298;48.792;9.154;2023-07-31T01:57:54;13.80;99.90
25342;DHT22;13298;48.792;9.154;2023-07-31T02:00:20;13.90;99.90
25342;DHT22;13298;48.792;9.154;2023-07-31T02:02:45;13.90;99.90
25342;DHT22;13298;48.792;9.154;2023-07-31T02:05:11;14.00;99.90
25342;DHT22;13298;48.792;9.154;2023-07-31T02:07:37;14.00;99.90
25342;DHT22;13298;48.792;9.154;2023-07-31T02:10:02;14.00;99.90
25342;DHT22;13298;48.792;9.154;2023-07-31T02:12:28;14.00;99.90
25342;DHT22;13298;48.792;9.154;2023-07-31T02:14:57;14.00;99.90
25342;DHT22;13298;48.792;9.154;2023-07-31T02:17:23;14.00;99.90
25342;DHT22;13298;48.792;9.154;2023-07-31T02:19:48;14.00;99.90
25342;DHT22;13298;48.792;9.154;2023-07-31T02:22:14;14.10;99.90
25342;DHT22;13298;48.792;9.154;2023-07-31T02:24:40;14.10;99.90
25342;DHT22;13298;48.792;9.154;2023-07-31T02:27:06;14.00;99.90
25342;DHT22;13298;48.792;9.154;2023-07-31T02:29:31;14.00;99.90
25342;DHT22;13298;48.792;9.154;2023-07-31T02:31:57;14.00;99.90
25342;DHT22;13298;48.792;9.154;2023-07-31T02:34:23;14.00;99.90
25342;DHT22;13298;48.792;9.154;2023-07-31T02:36:48;14.00;99.90
25342;DHT22;13298;48.792;9.154;2023-07-31T02:39:14;14.00;99.90
25342;DHT22;13298;48.792;9.154;2023-07-31T02:41:40;13.90;99.90
25342;DHT22;13298;48.792;9.154;2023-07-31T02:44:05;13.80;99.90
25342;DHT22;13298;48.792;9.154;2023-07-31T02:46:31;13.80;99.90
25342;DHT22;13298;48.792;9.154;2023-07-31T02:48:57;13.80;99.90
25342;DHT22;13298;48.792;9.154;2023-07-31T02:51:22;13.90;99.90
25342;DHT22;13298;48.792;9.154;2023-07-31T02:53:48;13.90;99.90
25342;DHT22;13298;48.792;9.154;2023-07-31T02:56:14;13.90;99.90
25342;DHT22;13298;48.792;9.154;2023-07-31T02:58:40;13.90;99.90
25342;DHT22;13298;48.792;9.154;2023-07-31T03:01:06;13.90;99.90
25342;DHT22;13298;48.792;9.154;2023-07-31T03:03:31;13.90;99.90
25342;DHT22;13298;48.792;9.154;2023-07-31T03:05:57;13.80;99.90
25342;DHT22;13298;48.792;9.154;2023-07-31T03:08:23;13.80;99.90
25342;DHT22;13298;48.792;9.154;2023-07-31T03:10:48;13.70;99.90
25342;DHT22;13298;48.792;9.154;2023-07-31T03:13:14;13.60;99.90
25342;DHT22;13298;48.792;9.154;2023-07-31T03:15:42;13.60;99.90
25342;DHT22;13298;48.792;9.154;2023-07-31T03:18:08;13.60;99.90
25342;DHT22;13298;48.792;9.154;2023-07-31T03:20:34;13.60;99.90
25342;DHT22;13298;48.792;9.154;2023-07-31T03:23:00;13.60;99.90
25342;DHT22;13298;48.792;9.154;2023-07-31T03:25:26;13.60;99.90
25342;DHT22;13298;48.792;9.154;2023-07-31T03:27:51;13.60;99.90
25342;DHT22;13298;48.792;9.154;2023-07-31T03:30:17;13.70;99.90
25342;DHT22;13298;48.792;9.154;2023-07-31T03:32:43;13.70;99.90
25342;DHT22;13298;48.792;9.154;2023-07-31T03:35:08;13.80;99.90
25342;DHT22;13298;48.792;9.154;2023-07-31T03:37:34;13.80;99.90
25342;DHT22;13298;48.792;9.154;2023-07-31T03:40:00;13.80;99.90
25342;DHT22;13298;48.792;9.154;2023-07-31T03:42:25;13.80;99.90
25342;DHT22;13298;48.792;9.154;2023-07-31T03:44:51;13.80;99.90
25342;DHT22;13298;48.792;9.154;2023-07-31T03:47:17;13.80;99.90
25342;DHT22;13298;48.792;9.154;2023-07-31T03:49:42;13.80;99.90
25342;DHT22;13298;48.792;9.154;2023-07-31T03:52:08;13.80;99.90
25342;DHT22;13298;48.792;9.154;2023-07-31T03:54:34;13.80;99.90
25342;DHT22;13298;48.792;9.154;2023-07-31T03:57:00;13.90;99.90
25342;DHT22;13298;48.792;9.154;2023-07-31T03:59:25;14.00;99.90
25342;DHT22;13298;48.792;9.154;2023-07-31T04:01:51;14.00;99.90
25342;DHT22;13298;48.792;9.154;2023-07-31T04:04:17;14.10;99.90
25342;DHT22;13298;48.792;9.154;2023-07-31T04:06:42;14.20;99.90
25342;DHT22;13298;48.792;9.154;2023-07-31T04:09:08;14.30;99.90
25342;DHT22;13298;48.792;9.154;2023-07-31T04:11:34;14.40;99.90
25342;DHT22;13298;48.792;9.154;2023-07-31T04:13:59;14.50;99.90
25342;DHT22;13298;48.792;9.154;2023-07-31T04:16:25;14.60;99.90
25342;DHT22;13298;48.792;9.154;2023-07-31T04:18:51;14.70;99.90
25342;DHT22;13298;48.792;9.154;2023-07-31T04:21:16;14.80;99.90
25342;DHT22;13298;48.792;9.154;2023-07-31T04:23:43;14.90;99.90
25342;DHT22;13298;48.792;9.154;2023-07-31T04:26:08;14.90;99.90
25342;DHT22;13298;48.792;9.154;2023-07-31T04:28:34;15.00;99.90
25342;DHT22;13298;48.792;9.154;2023-07-31T04:31:00;15.00;99.90
25342;DHT22;13298;48.792;9.154;2023-07-31T04:33:25;15.10;99.90
25342;DHT22;13298;48.792;9.154;2023-07-31T04:35:52;15.20;99.90
25342;DHT22;13298;48.792;9.154;2023-07-31T04:38:19;15.30;99.90
25342;DHT22;13298;48.792;9.154;2023-07-31T04:40:46;15.30;99.90
25342;DHT22;13298;48.792;9.154;2023-07-31T04:43:11;15.40;99.90
25342;DHT22;13298;48.792;9.154;2023-07-31T04:45:37;15.50;99.90
25342;DHT22;13298;48.792;9.154;2023-07-31T04:48:03;15.60;99.90
25342;DHT22;13298;48.792;9.154;2023-07-31T04:50:29;15.60;99.90
25342;DHT22;13298;48.792;9.154;2023-07-31T04:52:56;15.60;99.90
25342;DHT22;13298;48.792;9.154;2023-07-31T04:55:22;15.80;99.90
25342;DHT22;13298;48.792;9.154;2023-07-31T04:57:48;15.80;99.90
25342;DHT22;13298;48.792;9.154;2023-07-31T05:00:13;15.90;99.90
25342;DHT22;13298;48.792;9.154;2023-07-31T05:02:39;15.90;99.90
25342;DHT22;13298;48.792;9.154;2023-07-31T05:05:05;16.00;99.90
25342;DHT22;13298;48.792;9.154;2023-07-31T05:07:31;16.00;99.90
25342;DHT22;13298;48.792;9.154;2023-07-31T05:09:56;16.00;99.90
25342;DHT22;13298;48.792;9.154;2023-07-31T05:12:22;16.00;99.90
25342;DHT22;13298;48.792;9.154;2023-07-31T05:14:48;16.00;99.90
25342;DHT22;13298;48.792;9.154;2023-07-31T05:17:13;16.00;99.90
25342;DHT22;13298;48.792;9.154;2023-07-31T05:19:39;16.00;99.90
25342;DHT22;13298;48.792;9.154;2023-07-31T05:22:05;16.00;99.90
25342;DHT22;13298;48.792;9.154;2023-07-31T05:24:31;16.00;99.90
25342;DHT22;13298;48.792;9.154;2023-07-31T05:26:57;16.10;99.90
25342;DHT22;13298;48.792;9.154;2023-07-31T05:29:23;16.10;99.90
25342;DHT22;13298;48.792;9.154;2023-07-31T05:31:48;16.10;99.90
25342;DHT22;13298;48.792;9.154;2023-07-31T05:34:14;16.10;99.90
25342;DHT22;13298;48.792;9.154;2023-07-31T05:36:40;16.20;99.90
25342;DHT22;13298;48.792;9.154;2023-07-31T05:39:05;16.30;99.90
25342;DHT22;13298;48.792;9.154;2023-07-31T05:41:31;16.50;99.90
25342;DHT22;13298;48.792;9.154;2023-07-31T05:43:57;16.70;99.90
25342;DHT22;13298;48.792;9.154;2023-07-31T05:46:23;16.80;99.90
25342;DHT22;13298;48.792;9.154;2023-07-31T05:48:48;17.00;99.90
25342;DHT22;13298;48.792;9.154;2023-07-31T05:51:14;17.10;99.90
25342;DHT22;13298;48.792;9.154;2023-07-31T05:53:40;17.20;99.90
25342;DHT22;13298;48.792;9.154;2023-07-31T05:56:06;17.30;99.90
25342;DHT22;13298;48.792;9.154;2023-07-31T05:58:32;17.40;99.90
25342;DHT22;13298;48.792;9.154;2023-07-31T06:00:57;17.50;99.90
25342;DHT22;13298;48.792;9.154;2023-07-31T06:03:23;17.50;99.90
25342;DHT22;13298;48.792;9.154;2023-07-31T06:05:49;17.60;99.90
25342;DHT22;13298;48.792;9.154;2023-07-31T06:08:15;17.70;99.90
25342;DHT22;13298;48.792;9.154;2023-07-31T06:10:41;17.80;99.90
25342;DHT22;13298;48.792;9.154;2023-07-31T06:13:06;17.80;99.90
25342;DHT22;13298;48.792;9.154;2023-07-31T06:15:32;18.00;99.90
25342;DHT22;13298;48.792;9.154;2023-07-31T06:17:58;18.20;99.90
25342;DHT22;13298;48.792;9.154;2023-07-31T06:20:27;18.40;99.90
25342;DHT22;13298;48.792;9.154;2023-07-31T06:22:53;18.50;99.90
25342;DHT22;13298;48.792;9.154;2023-07-31T06:25:19;18.70;99.90
25342;DHT22;13298;48.792;9.154;2023-07-31T06:27:45;18.60;99.90
25342;DHT22;13298;48.792;9.154;2023-07-31T06:30:11;18.70;99.90
25342;DHT22;13298;48.792;9.154;2023-07-31T06:32:37;18.90;99.90
25342;DHT22;13298;48.792;9.154;2023-07-31T06:35:03;19.10;99.90
25342;DHT22;13298;48.792;9.154;2023-07-31T06:37:29;19.20;99.90
25342;DHT22;13298;48.792;9.154;2023-07-31T06:39:54;19.40;99.90
25342;DHT22;13298;48.792;9.154;2023-07-31T06:42:20;19.40;99.90
25342;DHT22;13298;48.792;9.154;2023-07-31T06:44:46;19.40;99.90
25342;DHT22;13298;48.792;9.154;2023-07-31T06:47:12;19.40;99.90
25342;DHT22;13298;48.792;9.154;2023-07-31T06:49:37;19.50;99.90
25342;DHT22;13298;48.792;9.154;2023-07-31T06:52:03;19.60;99.90
25342;DHT22;13298;48.792;9.154;2023-07-31T06:54:29;19.70;99.90
25342;DHT22;13298;48.792;9.154;2023-07-31T06:56:55;19.80;99.90
25342;DHT22;13298;48.792;9.154;2023-07-31T06:59:20;19.90;99.90
25342;DHT22;13298;48.792;9.154;2023-07-31T07:01:46;20.10;99.90
25342;DHT22;13298;48.792;9.154;2023-07-31T07:04:13;20.10;99.90
25342;DHT22;13298;48.792;9.154;2023-07-31T07:06:39;20.00;99.90
25342;DHT22;13298;48.792;9.154;2023-07-31T07:09:04;19.90;99.90
25342;DHT22;13298;48.792;9.154;2023-07-31T07:11:31;19.80;99.90
25342;DHT22;13298;48.792;9.154;2023-07-31T07:13:56;19.80;99.90
25342;DHT22;13298;48.792;9.154;2023-07-31T07:16:22;20.00;99.90
25342;DHT22;13298;48.792;9.154;2023-07-31T07:18:48;20.30;99.90
25342;DHT22;13298;48.792;9.154;2023-07-31T07:21:13;20.60;99.90
25342;DHT22;13298;48.792;9.154;2023-07-31T07:23:42;20.90;99.90
25342;DHT22;13298;48.792;9.154;2023-07-31T07:26:08;21.20;99.90
25342;DHT22;13298;48.792;9.154;2023-07-31T07:28:34;21.40;99.90
25342;DHT22;13298;48.792;9.154;2023-07-31T07:30:59;21.40;99.90
25342;DHT22;13298;48.792;9.154;2023-07-31T07:33:25;21.40;99.90
25342;DHT22;13298;48.792;9.154;2023-07-31T07:35:51;21.30;99.90
25342;DHT22;13298;48.792;9.154;2023-07-31T07:38:17;21.10;99.90
25342;DHT22;13298;48.792;9.154;2023-07-31T07:40:44;21.00;99.90
25342;DHT22;13298;48.792;9.154;2023-07-31T07:43:12;20.90;99.90
25342;DHT22;13298;48.792;9.154;2023-07-31T07:45:37;20.80;99.90
25342;DHT22;13298;48.792;9.154;2023-07-31T07:48:03;20.80;99.90
25342;DHT22;13298;48.792;9.154;2023-07-31T07:50:29;20.80;99.90
25342;DHT22;13298;48.792;9.154;2023-07-31T07:52:55;21.00;99.90
25342;DHT22;13298;48.792;9.154;2023-07-31T07:55:20;21.10;99.90
25342;DHT22;13298;48.792;9.154;2023-07-31T07:57:46;21.10;99.90
25342;DHT22;13298;48.792;9.154;2023-07-31T08:00:13;21.20;99.90
25342;DHT22;13298;48.792;9.154;2023-07-31T08:02:38;21.30;99.90
25342;DHT22;13298;48.792;9.154;2023-07-31T08:05:04;21.50;99.90
25342;DHT22;13298;48.792;9.154;2023-07-31T08:07:30;21.70;99.90
25342;DHT22;13298;48.792;9.154;2023-07-31T08:09:56;21.90;99.90
25342;DHT22;13298;48.792;9.154;2023-07-31T08:12:21;22.00;99.90
25342;DHT22;13298;48.792;9.154;2023-07-31T08:14:47;22.00;99.90
25342;DHT22;13298;48.792;9.154;2023-07-31T08:17:13;22.00;99.90
25342;DHT22;13298;48.792;9.154;2023-07-31T08:19:38;21.80;99.90
25342;DHT22;13298;48.792;9.154;2023-07-31T08:22:04;21.70;99.90
25342;DHT22;13298;48.792;9.154;2023-07-31T08:24:30;21.70;99.90
25342;DHT22;13298;48.792;9.154;2023-07-31T08:26:56;21.80;99.90
25342;DHT22;13298;48.792;9.154;2023-07-31T08:29:21;22.00;99.90
25342;DHT22;13298;48.792;9.154;2023-07-31T08:31:47;22.30;99.90
25342;DHT22;13298;48.792;9.154;2023-07-31T08:34:13;22.30;99.90
25342;DHT22;13298;48.792;9.154;2023-07-31T08:36:39;22.60;99.90
25342;DHT22;13298;48.792;9.154;2023-07-31T08:39:04;22.70;99.90
25342;DHT22;13298;48.792;9.154;2023-07-31T08:41:30;22.80;99.90
25342;DHT22;13298;48.792;9.154;2023-07-31T08:43:56;22.80;99.70
25342;DHT22;13298;48.792;9.154;2023-07-31T08:46:22;22.90;99.40
25342;DHT22;13298;48.792;9.154;2023-07-31T08:48:49;23.00;98.90
25342;DHT22;13298;48.792;9.154;2023-07-31T08:51:16;23.30;99.40
25342;DHT22;13298;48.792;9.154;2023-07-31T08:53:42;23.40;99.30
25342;DHT22;13298;48.792;9.154;2023-07-31T08:56:08;23.30;98.70
25342;DHT22;13298;48.792;9.154;2023-07-31T08:58:35;23.30;98.20
25342;DHT22;13298;48.792;9.154;2023-07-31T09:01:04;23.40;99.30
25342;DHT22;13298;48.792;9.154;2023-07-31T09:03:33;23.40;98.00
25342;DHT22;13298;48.792;9.154;2023-07-31T09:06:02;23.50;98.30
25342;DHT22;13298;48.792;9.154;2023-07-31T09:08:31;23.40;97.80
25342;DHT22;13298;48.792;9.154;2023-07-31T09:11:01;23.40;97.90
25342;DHT22;13298;48.792;9.154;2023-07-31T09:13:32;23.50;98.10
25342;DHT22;13298;48.792;9.154;2023-07-31T09:15:58;23.50;97.20
25342;DHT22;13298;48.792;9.154;2023-07-31T09:18:24;23.50;97.60
25342;DHT22;13298;48.792;9.154;2023-07-31T09:21:05;23.40;97.40
25342;DHT22;13298;48.792;9.154;2023-07-31T09:23:45;23.30;98.30
25342;DHT22;13298;48.792;9.154;2023-07-31T09:26:36;23.30;98.30
25342;DHT22;13298;48.792;9.154;2023-07-31T09:29:06;23.20;98.60
25342;DHT22;13298;48.792;9.154;2023-07-31T09:31:41;23.10;97.90
25342;DHT22;13298;48.792;9.154;2023-07-31T09:34:08;23.00;99.10
25342;DHT22;13298;48.792;9.154;2023-07-31T09:36:46;23.00;99.00
25342;DHT22;13298;48.792;9.154;2023-07-31T09:39:16;23.00;98.00
25342;DHT22;13298;48.792;9.154;2023-07-31T09:41:44;22.90;98.50
25342;DHT22;13298;48.792;9.154;2023-07-31T09:44:12;22.90;98.40
25342;DHT22;13298;48.792;9.154;2023-07-31T09:46:38;23.00;98.60
25342;DHT22;13298;48.792;9.154;2023-07-31T09:49:11;23.00;98.10
25342;DHT22;13298;48.792;9.154;2023-07-31T09:51:38;23.20;98.00
25342;DHT22;13298;48.792;9.154;2023-07-31T09:54:12;23.40;98.60
25342;DHT22;13298;48.792;9.154;2023-07-31T09:56:46;23.70;97.70
25342;DHT22;13298;48.792;9.154;2023-07-31T09:59:16;23.90;96.10
25342;DHT22;13298;48.792;9.154;2023-07-31T10:01:46;23.90;96.00
25342;DHT22;13298;48.792;9.154;2023-07-31T10:04:13;23.90;97.10
25342;DHT22;13298;48.792;9.154;2023-07-31T10:06:40;23.90;96.30
25342;DHT22;13298;48.792;9.154;2023-07-31T10:09:09;23.80;96.10
25342;DHT22;13298;48.792;9.154;2023-07-31T10:11:47;23.70;96.30
25342;DHT22;13298;48.792;9.154;2023-07-31T10:14:19;23.60;96.90
25342;DHT22;13298;48.792;9.154;2023-07-31T10:16:45;23.60;96.10
25342;DHT22;13298;48.792;9.154;2023-07-31T10:19:11;23.60;96.30
25342;DHT22;13298;48.792;9.154;2023-07-31T10:21:37;23.60;96.30
25342;DHT22;13298;48.792;9.154;2023-07-31T10:24:04;23.60;96.10
25342;DHT22;13298;48.792;9.154;2023-07-31T10:26:31;23.60;96.20
25342;DHT22;13298;48.792;9.154;2023-07-31T10:28:59;23.70;96.20
25342;DHT22;13298;48.792;9.154;2023-07-31T10:31:27;23.70;95.70
25342;DHT22;13298;48.792;9.154;2023-07-31T10:33:54;23.80;96.20
25342;DHT22;13298;48.792;9.154;2023-07-31T10:36:21;24.00;95.40
25342;DHT22;13298;48.792;9.154;2023-07-31T10:38:50;24.10;94.80
25342;DHT22;13298;48.792;9.154;2023-07-31T10:41:16;24.20;95.40
25342;DHT22;13298;48.792;9.154;2023-07-31T10:43:42;24.30;95.10
25342;DHT22;13298;48.792;9.154;2023-07-31T10:46:11;24.50;94.80
25342;DHT22;13298;48.792;9.154;2023-07-31T10:48:39;24.50;94.90
25342;DHT22;13298;48.792;9.154;2023-07-31T10:51:10;24.60;95.50
25342;DHT22;13298;48.792;9.154;2023-07-31T10:53:38;24.50;93.90
25342;DHT22;13298;48.792;9.154;2023-07-31T10:56:09;24.50;94.20
25342;DHT22;13298;48.792;9.154;2023-07-31T10:58:37;24.50;95.50
25342;DHT22;13298;48.792;9.154;2023-07-31T11:01:04;24.40;95.10
25342;DHT22;13298;48.792;9.154;2023-07-31T11:03:51;24.40;93.90
25342;DHT22;13298;48.792;9.154;2023-07-31T11:06:19;24.50;94.00
25342;DHT22;13298;48.792;9.154;2023-07-31T11:08:47;24.50;94.30
25342;DHT22;13298;48.792;9.154;2023-07-31T11:11:16;24.40;94.10
25342;DHT22;13298;48.792;9.154;2023-07-31T11:13:47;24.30;94.20
25342;DHT22;13298;48.792;9.154;2023-07-31T11:16:19;24.30;93.60
25342;DHT22;13298;48.792;9.154;2023-07-31T11:18:47;24.30;93.70
25342;DHT22;13298;48.792;9.154;2023-07-31T11:21:18;24.30;94.50
25342;DHT22;13298;48.792;9.154;2023-07-31T11:23:49;24.50;95.10
25342;DHT22;13298;48.792;9.154;2023-07-31T11:26:17;24.70;95.00
25342;DHT22;13298;48.792;9.154;2023-07-31T11:28:43;24.80;93.70
25342;DHT22;13298;48.792;9.154;2023-07-31T11:31:09;24.90;92.80
25342;DHT22;13298;48.792;9.154;2023-07-31T11:33:36;25.00;93.60
25342;DHT22;13298;48.792;9.154;2023-07-31T11:36:02;25.00;93.30
25342;DHT22;13298;48.792;9.154;2023-07-31T11:38:29;25.00;95.20
25342;DHT22;13298;48.792;9.154;2023-07-31T11:40:58;24.90;94.30
25342;DHT22;13298;48.792;9.154;2023-07-31T11:43:26;24.90;94.20
25342;DHT22;13298;48.792;9.154;2023-07-31T11:45:57;24.90;94.10
25342;DHT22;13298;48.792;9.154;2023-07-31T11:48:27;24.90;93.70
25342;DHT22;13298;48.792;9.154;2023-07-31T11:50:57;24.90;93.30
25342;DHT22;13298;48.792;9.154;2023-07-31T11:53:43;25.00;93.80
25342;DHT22;13298;48.792;9.154;2023-07-31T11:56:13;25.10;93.30
25342;DHT22;13298;48.792;9.154;2023-07-31T11:58:41;25.10;93.20
25342;DHT22;13298;48.792;9.154;2023-07-31T12:01:08;25.20;94.00
25342;DHT22;13298;48.792;9.154;2023-07-31T12:03:34;25.20;92.70
25342;DHT22;13298;48.792;9.154;2023-07-31T12:06:00;25.40;93.60
25342;DHT22;13298;48.792;9.154;2023-07-31T12:08:26;25.40;92.80
25342;DHT22;13298;48.792;9.154;2023-07-31T12:10:53;25.40;92.80
25342;DHT22;13298;48.792;9.154;2023-07-31T12:13:24;25.30;92.70
25342;DHT22;13298;48.792;9.154;2023-07-31T12:16:01;25.10;93.00
25342;DHT22;13298;48.792;9.154;2023-07-31T12:18:33;25.00;93.10
25342;DHT22;13298;48.792;9.154;2023-07-31T12:21:02;24.90;93.00
25342;DHT22;13298;48.792;9.154;2023-07-31T12:23:34;24.70;93.20
25342;DHT22;13298;48.792;9.154;2023-07-31T12:26:14;24.70;93.60
25342;DHT22;13298;48.792;9.154;2023-07-31T12:28:41;24.70;94.00
25342;DHT22;13298;48.792;9.154;2023-07-31T12:31:16;24.80;93.50
25342;DHT22;13298;48.792;9.154;2023-07-31T12:33:50;24.80;94.00
25342;DHT22;13298;48.792;9.154;2023-07-31T12:36:17;24.90;93.80
25342;DHT22;13298;48.792;9.154;2023-07-31T12:38:45;24.90;92.90
25342;DHT22;13298;48.792;9.154;2023-07-31T12:41:11;24.70;92.60
25342;DHT22;13298;48.792;9.154;2023-07-31T12:43:39;24.50;93.40
25342;DHT22;13298;48.792;9.154;2023-07-31T12:46:07;24.30;94.00
25342;DHT22;13298;48.792;9.154;2023-07-31T12:48:36;24.10;93.60
25342;DHT22;13298;48.792;9.154;2023-07-31T12:51:05;24.00;93.80
25342;DHT22;13298;48.792;9.154;2023-07-31T12:53:32;23.90;94.00
25342;DHT22;13298;48.792;9.154;2023-07-31T12:55:58;23.80;93.60
25342;DHT22;13298;48.792;9.154;2023-07-31T12:58:24;23.60;93.40
25342;DHT22;13298;48.792;9.154;2023-07-31T13:00:50;23.60;94.10
25342;DHT22;13298;48.792;9.154;2023-07-31T13:03:16;23.50;94.10
25342;DHT22;13298;48.792;9.154;2023-07-31T13:05:42;23.50;95.00
25342;DHT22;13298;48.792;9.154;2023-07-31T13:08:08;23.40;94.60
25342;DHT22;13298;48.792;9.154;2023-07-31T13:10:33;23.40;94.00
25342;DHT22;13298;48.792;9.154;2023-07-31T13:12:59;23.30;94.40
25342;DHT22;13298;48.792;9.154;2023-07-31T13:15:25;23.30;95.30
25342;DHT22;13298;48.792;9.154;2023-07-31T13:17:50;23.30;95.20
25342;DHT22;13298;48.792;9.154;2023-07-31T13:20:16;23.30;95.20
25342;DHT22;13298;48.792;9.154;2023-07-31T13:22:43;23.30;95.10
25342;DHT22;13298;48.792;9.154;2023-07-31T13:25:09;23.30;94.90
25342;DHT22;13298;48.792;9.154;2023-07-31T13:27:35;23.40;95.40
25342;DHT22;13298;48.792;9.154;2023-07-31T13:30:01;23.60;95.30
25342;DHT22;13298;48.792;9.154;2023-07-31T13:32:27;23.70;94.30
25342;DHT22;13298;48.792;9.154;2023-07-31T13:34:53;24.10;94.50
25342;DHT22;13298;48.792;9.154;2023-07-31T13:37:18;24.50;93.90
25342;DHT22;13298;48.792;9.154;2023-07-31T13:39:44;24.80;93.60
25342;DHT22;13298;48.792;9.154;2023-07-31T13:42:10;25.00;92.70
25342;DHT22;13298;48.792;9.154;2023-07-31T13:44:38;25.10;93.20
25342;DHT22;13298;48.792;9.154;2023-07-31T13:47:04;25.20;93.80
25342;DHT22;13298;48.792;9.154;2023-07-31T13:49:30;25.20;93.40
25342;DHT22;13298;48.792;9.154;2023-07-31T13:51:56;25.20;92.00
25342;DHT22;13298;48.792;9.154;2023-07-31T13:54:23;25.20;92.00
25342;DHT22;13298;48.792;9.154;2023-07-31T13:56:49;25.20;92.50
25342;DHT22;13298;48.792;9.154;2023-07-31T13:59:15;25.10;92.10
25342;DHT22;13298;48.792;9.154;2023-07-31T14:01:42;25.10;92.60
25342;DHT22;13298;48.792;9.154;2023-07-31T14:04:08;25.10;94.20
25342;DHT22;13298;48.792;9.154;2023-07-31T14:06:34;25.00;92.20
25342;DHT22;13298;48.792;9.154;2023-07-31T14:09:00;24.90;92.70
25342;DHT22;13298;48.792;9.154;2023-07-31T14:11:26;24.80;92.20
25342;DHT22;13298;48.792;9.154;2023-07-31T14:13:52;24.70;92.30
25342;DHT22;13298;48.792;9.154;2023-07-31T14:16:18;24.80;93.10
25342;DHT22;13298;48.792;9.154;2023-07-31T14:18:43;24.90;93.00
25342;DHT22;13298;48.792;9.154;2023-07-31T14:21:11;24.90;92.40
25342;DHT22;13298;48.792;9.154;2023-07-31T14:23:37;25.10;92.90
25342;DHT22;13298;48.792;9.154;2023-07-31T14:26:03;25.30;92.40
25342;DHT22;13298;48.792;9.154;2023-07-31T14:28:28;25.40;92.00
25342;DHT22;13298;48.792;9.154;2023-07-31T14:30:54;25.60;92.50
25342;DHT22;13298;48.792;9.154;2023-07-31T14:33:20;25.70;92.60
25342;DHT22;13298;48.792;9.154;2023-07-31T14:35:45;25.90;92.40
25342;DHT22;13298;48.792;9.154;2023-07-31T14:38:11;25.80;91.60
25342;DHT22;13298;48.792;9.154;2023-07-31T14:40:37;25.70;92.10
25342;DHT22;13298;48.792;9.154;2023-07-31T14:43:04;25.70;92.50
25342;DHT22;13298;48.792;9.154;2023-07-31T14:45:29;25.70;92.30
25342;DHT22;13298;48.792;9.154;2023-07-31T14:47:55;25.70;91.30
25342;DHT22;13298;48.792;9.154;2023-07-31T14:50:21;25.60;91.70
25342;DHT22;13298;48.792;9.154;2023-07-31T14:52:48;25.70;91.50
25342;DHT22;13298;48.792;9.154;2023-07-31T14:55:13;25.70;91.60
25342;DHT22;13298;48.792;9.154;2023-07-31T14:57:39;25.70;91.70
25342;DHT22;13298;48.792;9.154;2023-07-31T15:00:05;25.70;92.20
25342;DHT22;13298;48.792;9.154;2023-07-31T15:02:34;25.70;92.30
25342;DHT22;13298;48.792;9.154;2023-07-31T15:05:01;25.80;91.70
25342;DHT22;13298;48.792;9.154;2023-07-31T15:07:26;25.90;92.00
25342;DHT22;13298;48.792;9.154;2023-07-31T15:09:52;26.00;91.70
25342;DHT22;13298;48.792;9.154;2023-07-31T15:12:18;26.00;92.20
25342;DHT22;13298;48.792;9.154;2023-07-31T15:14:43;26.00;92.80
25342;DHT22;13298;48.792;9.154;2023-07-31T15:17:09;25.90;92.30
25342;DHT22;13298;48.792;9.154;2023-07-31T15:19:35;25.80;92.50
25342;DHT22;13298;48.792;9.154;2023-07-31T15:22:02;25.70;91.80
25342;DHT22;13298;48.792;9.154;2023-07-31T15:24:28;25.70;90.90
25342;DHT22;13298;48.792;9.154;2023-07-31T15:26:54;25.70;91.00
25342;DHT22;13298;48.792;9.154;2023-07-31T15:29:20;25.80;91.90
25342;DHT22;13298;48.792;9.154;2023-07-31T15:31:47;25.70;91.30